Time;durP1;ratioP1;P1;durP2;ratioP2;P2;SDS_P1;SDS_P2;PMS_P1;PMS_P2;Temp;Humidity;BMP_temperature;BMP_pressure;BME280_temperature;BME280_humidity;BME280_pressure;Samples;Min_cycle;Max_cycle;Signal;HPM_P1;HPM_P2
2022/12/04 00:01:31;;;;;;;43.83;23.05;;;;;;;2.13;100.00;98827.72;10251553;28;20046;-57
2022/12/04 00:06:29;;;;;;;58.35;31.20;;;;;;;2.11;100.00;98830.22;10251184;28;20496;-57
2022/12/04 00:11:30;;;;;;;43.60;24.65;;;;;;;2.03;100.00;98826.38;10251830;28;20057;-57
2022/12/04 00:16:29;;;;;;;53.00;25.30;;;;;;;1.97;100.00;98826.06;10250864;28;20483;-57
2022/12/04 00:21:28;;;;;;;;;;;;;;;2.03;100.00;98825.50;10251336;28;20492;-57
2022/12/04 00:26:29;;;;;;;40.45;22.92;;;;;;;2.07;100.00;98817.19;10250275;28;20312;-57
2022/12/04 00:31:29;;;;;;;42.20;22.67;;;;;;;2.16;100.00;98831.31;10250373;28;20482;-57
2022/12/04 00:36:29;;;;;;;41.05;22.42;;;;;;;2.12;100.00;98838.75;10248633;28;20512;-57
2022/12/04 00:41:29;;;;;;;;;;;;;;;2.15;100.00;98844.03;10250424;28;20076;-57
2022/12/04 00:46:28;;;;;;;51.65;27.85;;;;;;;2.19;100.00;98838.25;10250435;28;19952;-57
2022/12/04 00:51:28;;;;;;;38.40;19.20;;;;;;;2.10;100.00;98838.69;10249684;28;20092;-57
2022/12/04 00:56:27;;;;;;;;;;;;;;;2.02;100.00;98824.63;10250209;28;20080;-57
2022/12/04 01:01:27;;;;;;;42.07;19.93;;;;;;;2.07;100.00;98842.78;10249740;28;19959;-56
2022/12/04 01:06:32;;;;;;;41.97;21.35;;;;;;;2.08;100.00;98834.28;10249504;28;20062;-57
2022/12/04 01:11:32;;;;;;;40.40;18.95;;;;;;;1.92;100.00;98830.06;10249233;28;20065;-56
2022/12/04 01:16:34;;;;;;;36.47;17.88;;;;;;;1.89;100.00;98847.84;10249438;28;20073;-57
2022/12/04 01:21:35;;;;;;;36.08;18.08;;;;;;;1.89;100.00;98835.91;10247508;28;20940;-57
2022/12/04 01:26:34;;;;;;;33.60;15.40;;;;;;;1.78;100.00;98829.38;10253119;28;20061;-57
2022/12/04 01:31:33;;;;;;;31.98;14.57;;;;;;;1.75;100.00;98835.22;10255274;28;20089;-57
2022/12/04 01:36:32;;;;;;;33.22;14.80;;;;;;;1.79;100.00;98836.28;10257007;28;20097;-57
2022/12/04 01:41:31;;;;;;;30.33;14.63;;;;;;;1.84;100.00;98837.38;10255863;28;20053;-57
2022/12/04 01:46:30;;;;;;;33.13;16.02;;;;;;;1.85;100.00;98835.69;10256565;28;20546;-57
2022/12/04 01:51:36;;;;;;;35.30;15.20;;;;;;;1.92;100.00;98835.19;10256179;28;20044;-57
2022/12/04 01:56:44;;;;;;;36.70;15.27;;;;;;;1.89;100.00;98829.94;10255699;28;20085;-57
2022/12/04 02:01:51;;;;;;;30.55;14.70;;;;;;;1.92;100.00;98827.50;10254228;28;20086;-57
2022/12/04 02:06:50;;;;;;;29.88;13.88;;;;;;;1.96;100.00;98819.19;10255663;28;20057;-57
2022/12/04 02:12:02;;;;;;;32.92;14.90;;;;;;;1.86;100.00;98806.75;10255742;28;20046;-57
2022/12/04 02:17:31;;;;;;;33.70;14.98;;;;;;;1.96;100.00;98820.06;10254933;28;20061;-57
2022/12/04 02:22:56;;;;;;;34.43;16.00;;;;;;;2.03;100.00;98808.47;10254474;28;20085;-57
2022/12/04 02:28:05;;;;;;;27.80;13.82;;;;;;;2.02;100.00;98808.38;10255373;28;20069;-57
2022/12/04 02:33:15;;;;;;;28.02;12.82;;;;;;;2.00;100.00;98802.28;10254521;28;20076;-57
2022/12/04 02:38:19;;;;;;;30.17;14.52;;;;;;;1.96;100.00;98814.06;10253753;28;20069;-57
2022/12/04 02:43:54;;;;;;;30.48;14.25;;;;;;;1.86;100.00;98801.63;10252706;28;20530;-57
2022/12/04 02:48:57;;;;;;;30.70;13.20;;;;;;;1.84;100.00;98803.22;10253095;28;20080;-57
2022/12/04 02:54:03;;;;;;;32.45;13.98;;;;;;;1.98;100.00;98804.78;10253603;28;20066;-57
2022/12/04 02:59:13;;;;;;;30.45;12.63;;;;;;;2.02;100.00;98801.59;10253822;28;20062;-57
2022/12/04 03:04:31;;;;;;;44.20;19.85;;;;;;;2.10;100.00;98805.38;10253114;28;20085;-57
2022/12/04 03:09:38;;;;;;;31.00;14.02;;;;;;;2.13;100.00;98791.84;10252972;28;20077;-58
2022/12/04 03:14:43;;;;;;;34.45;15.57;;;;;;;2.05;100.00;98788.06;10252659;28;20069;-57
2022/12/04 03:19:50;;;;;;;32.83;15.52;;;;;;;2.01;100.00;98796.38;10252745;28;20058;-57
2022/12/04 03:24:55;;;;;;;33.17;15.82;;;;;;;2.02;100.00;98787.88;10251122;28;20221;-57
2022/12/04 03:30:07;;;;;;;34.80;17.30;;;;;;;2.03;100.00;98787.09;10250483;28;20074;-57
2022/12/04 03:35:25;;;;;;;44.00;21.63;;;;;;;2.05;100.00;98788.06;10252483;28;20086;-57
2022/12/04 03:40:42;;;;;;;38.47;18.38;;;;;;;2.08;100.00;98780.53;10251585;28;20532;-57
2022/12/04 03:46:14;;;;;;;42.55;19.92;;;;;;;2.14;100.00;98779.16;10251709;28;20074;-57
2022/12/04 03:52:02;;;;;;;43.78;21.27;;;;;;;2.09;100.00;98779.69;10249975;28;20547;-57
2022/12/04 03:57:16;;;;;;;45.67;25.60;;;;;;;1.96;100.00;98785.91;10235802;28;20461;-57
2022/12/04 04:02:20;;;;;;;35.15;19.23;;;;;;;1.99;100.00;98780.06;10251224;28;20551;-57
2022/12/04 04:07:32;;;;;;;31.90;18.08;;;;;;;2.05;100.00;98778.69;10250674;28;20069;-57
2022/12/04 04:12:37;;;;;;;38.70;18.20;;;;;;;2.12;100.00;98795.25;10249351;28;20066;-57
2022/12/04 04:28:36;;;;;;;48.97;26.60;;;;;;;2.09;100.00;98784.81;10251373;28;20065;-57
2022/12/04 04:33:45;;;;;;;33.03;15.07;;;;;;;2.08;100.00;98794.19;10250094;28;20085;-57
2022/12/04 04:38:54;;;;;;;39.28;19.10;;;;;;;1.98;100.00;98786.88;10250342;28;20092;-57
2022/12/04 04:44:20;;;;;;;29.95;13.55;;;;;;;2.00;100.00;98782.72;10249794;28;20529;-57
2022/12/04 04:49:23;;;;;;;28.55;14.40;;;;;;;2.01;100.00;98781.03;10249897;28;20069;-57
2022/12/04 04:54:24;;;;;;;28.58;13.77;;;;;;;2.09;100.00;98785.72;10248137;28;20065;-57
2022/12/04 04:59:22;;;;;;;25.45;13.25;;;;;;;2.12;100.00;98783.31;10250212;28;20065;-57
2022/12/04 05:04:21;;;;;;;27.58;13.32;;;;;;;2.21;100.00;98789.66;10258370;28;20048;-57
2022/12/04 05:09:20;;;;;;;28.15;14.15;;;;;;;2.18;100.00;98787.84;10257585;28;20048;-57
2022/12/04 05:14:19;;;;;;;28.60;14.73;;;;;;;2.18;100.00;98787.84;10257325;28;20026;-57
2022/12/04 05:24:36;;;;;;;28.48;15.80;;;;;;;2.21;100.00;98785.44;10257219;28;20070;-57
2022/12/04 05:29:35;;;;;;;45.30;24.98;;;;;;;2.25;100.00;98796.69;10251246;28;20034;-57
2022/12/04 05:34:34;;;;;;;30.23;16.75;;;;;;;2.25;100.00;98804.38;10254256;28;20077;-57
2022/12/04 05:39:34;;;;;;;35.63;19.23;;;;;;;2.22;100.00;98802.56;10255268;28;20066;-57
2022/12/04 05:44:33;;;;;;;32.78;17.85;;;;;;;2.15;100.00;98813.31;10254964;28;20061;-57
2022/12/04 05:49:33;;;;;;;22.50;11.13;;;;;;;2.13;100.00;98823.47;10254315;28;20058;-57
2022/12/04 05:54:32;;;;;;;22.35;10.80;;;;;;;2.03;100.00;98818.69;10254810;28;20093;-57
2022/12/04 05:59:31;;;;;;;14.90;7.10;;;;;;;1.77;100.00;98831.88;10254436;28;20046;-57
2022/12/04 06:04:30;;;;;;;40.83;16.00;;;;;;;1.65;100.00;98827.88;10253795;28;20088;-57
2022/12/04 06:09:29;;;;;;;21.50;11.45;;;;;;;1.57;100.00;98831.72;10254078;28;20503;-57
2022/12/04 06:14:28;;;;;;;52.13;24.63;;;;;;;1.71;100.00;98832.44;10254371;28;20046;-57
2022/12/04 06:19:27;;;;;;;33.05;17.40;;;;;;;1.89;100.00;98828.25;10252190;28;20038;-57
2022/12/04 06:24:26;;;;;;;27.38;13.43;;;;;;;1.82;100.00;98835.53;10253884;28;20032;-56
2022/12/04 06:29:26;;;;;;;406.88;195.30;;;;;;;1.78;100.00;98836.19;10250710;28;20030;-56
2022/12/04 06:34:25;;;;;;;29.10;16.17;;;;;;;1.81;100.00;98838.88;10251194;28;20575;-56
2022/12/04 06:39:24;;;;;;;36.17;20.85;;;;;;;1.75;100.00;98835.22;10244920;28;20491;-56
2022/12/04 06:44:23;;;;;;;26.25;13.82;;;;;;;1.81;100.00;98839.78;10221312;28;20058;-56
2022/12/04 06:49:24;;;;;;;27.20;14.65;;;;;;;1.87;100.00;98847.75;10246415;28;20483;-56
2022/12/04 06:54:23;;;;;;;35.80;19.48;;;;;;;1.88;100.00;98835.84;10248087;28;20069;-56
2022/12/04 06:59:22;;;;;;;31.30;16.95;;;;;;;2.00;100.00;98841.59;10245935;28;20050;-56
2022/12/04 07:04:22;;;;;;;31.20;16.27;;;;;;;1.96;100.00;98834.56;10246835;28;20153;-56
2022/12/04 07:09:22;;;;;;;27.58;16.80;;;;;;;2.04;100.00;98829.81;10246374;28;20137;-56
2022/12/04 07:14:20;;;;;;;22.15;12.48;;;;;;;2.04;100.00;98830.69;10247021;28;20554;-56
2022/12/04 07:19:19;;;;;;;27.35;16.67;;;;;;;2.25;100.00;98845.34;10245932;28;20558;-58
2022/12/04 07:24:18;;;;;;;24.65;13.95;;;;;;;2.37;100.00;98834.03;10245473;28;20048;-58
2022/12/04 07:29:17;;;;;;;28.50;14.38;;;;;;;2.47;100.00;98837.06;10245620;28;20034;-57
2022/12/04 07:34:16;;;;;;;21.92;12.77;;;;;;;2.50;100.00;98843.19;10246528;28;20045;-57
2022/12/04 07:39:15;;;;;;;34.28;20.58;;;;;;;2.53;100.00;98856.13;10245944;28;20145;-57
2022/12/04 07:44:14;;;;;;;31.40;18.73;;;;;;;2.69;100.00;98844.06;10244385;28;20065;-56
2022/12/04 07:49:13;;;;;;;39.40;25.55;;;;;;;2.59;100.00;98850.44;10244996;28;20413;-57
2022/12/04 07:54:12;;;;;;;27.20;16.23;;;;;;;2.51;100.00;98844.97;10260136;28;20366;-58
2022/12/04 07:59:11;;;;;;;31.20;16.00;;;;;;;2.52;100.00;98854.41;10258220;28;20046;-57
2022/12/04 08:04:10;;;;;;;32.80;18.67;;;;;;;2.58;100.00;98853.78;10240751;28;20074;-57
2022/12/04 08:09:09;;;;;;;24.15;15.20;;;;;;;2.58;100.00;98853.78;10241744;28;20125;-56
2022/12/04 08:14:10;;;;;;;27.42;14.52;;;;;;;2.57;100.00;98852.94;10243361;28;20431;-57
2022/12/04 08:19:09;;;;;;;21.45;12.63;;;;;;;2.51;100.00;98851.75;10243755;28;20157;-57
2022/12/04 08:24:08;;;;;;;21.83;12.27;;;;;;;2.51;100.00;98847.53;10243707;28;20030;-57
2022/12/04 08:29:07;;;;;;;28.33;16.30;;;;;;;2.70;100.00;98854.41;10242785;28;20061;-57
2022/12/04 08:34:06;;;;;;;29.60;16.75;;;;;;;2.91;100.00;98849.41;10243739;28;20041;-57
2022/12/04 08:39:05;;;;;;;22.75;12.38;;;;;;;3.11;100.00;98841.75;10242996;28;20038;-57
2022/12/04 08:44:05;;;;;;;25.83;14.60;;;;;;;3.16;100.00;98837.72;10243877;28;20524;-57
2022/12/04 08:49:04;;;;;;;29.55;16.65;;;;;;;3.36;100.00;98844.63;10242850;28;20064;-57
2022/12/04 08:54:06;;;;;;;23.15;14.02;;;;;;;3.34;99.53;98829.97;10243156;28;20058;-57
2022/12/04 08:59:05;;;;;;;18.67;11.07;;;;;;;3.30;98.87;98823.81;10244121;28;20169;-58
2022/12/04 09:04:04;;;;;;;22.63;12.02;;;;;;;3.44;98.43;98825.31;10243542;28;20559;-57
2022/12/04 09:09:04;;;;;;;23.88;14.52;;;;;;;3.55;98.25;98814.66;10241756;28;20474;-59
2022/12/04 09:14:03;;;;;;;;;;;;;;;3.56;97.91;98809.56;10244062;28;20173;-57
2022/12/04 09:19:02;;;;;;;29.08;17.10;;;;;;;3.58;97.69;98799.38;10243049;28;19953;-57
2022/12/04 09:24:01;;;;;;;26.48;16.20;;;;;;;3.71;97.05;98801.69;10242882;28;20523;-57
2022/12/04 09:29:02;;;;;;;32.75;20.58;;;;;;;3.75;96.86;98800.09;10242321;28;20121;-57
2022/12/04 09:34:01;;;;;;;49.03;28.40;;;;;;;3.81;96.68;98792.66;10242377;28;20070;-57
2022/12/04 09:39:00;;;;;;;34.22;19.38;;;;;;;3.96;96.88;98807.84;10242304;28;20121;-58
2022/12/04 09:44:02;;;;;;;26.65;14.70;;;;;;;4.15;96.56;98789.81;10243186;28;20045;-57
2022/12/04 09:49:08;;;;;;;33.63;19.58;;;;;;;4.19;96.32;98778.84;10247891;28;20154;-58
2022/12/04 09:54:16;;;;;;;35.50;20.42;;;;;;;4.45;95.50;98769.59;10248242;28;20235;-57
2022/12/04 09:59:22;;;;;;;29.55;18.25;;;;;;;4.72;95.32;98763.78;10249467;28;20671;-57
2022/12/04 10:04:21;;;;;;;30.65;19.42;;;;;;;4.96;95.04;98755.28;10248854;28;20588;-57
2022/12/04 10:09:28;;;;;;;;;;;;;;;4.99;93.42;98756.25;10249483;28;20564;-57
2022/12/04 10:14:59;;;;;;;146.80;73.68;;;;;;;4.75;92.71;98752.75;10248130;28;19957;-57
2022/12/04 10:20:20;;;;;;;34.05;21.02;;;;;;;4.66;93.42;98745.53;10248446;28;20498;-57
2022/12/04 10:25:24;;;;;;;26.63;15.80;;;;;;;4.39;91.93;98722.25;10248544;28;20077;-57
2022/12/04 10:30:25;;;;;;;29.13;16.17;;;;;;;4.17;92.52;98705.97;10247094;28;20453;-57
2022/12/04 10:35:30;;;;;;;30.63;17.92;;;;;;;4.20;92.60;98711.25;10247464;28;20132;-57
2022/12/04 10:40:36;;;;;;;31.15;18.27;;;;;;;4.15;92.50;98699.91;10247094;28;20145;-57
2022/12/04 10:45:36;;;;;;;30.45;18.42;;;;;;;4.11;92.65;98695.47;10246865;28;20173;-57
2022/12/04 10:50:35;;;;;;;;;;;;;;;4.00;93.10;98701.84;10248713;28;20118;-57
2022/12/04 10:55:35;;;;;;;27.85;17.63;;;;;;;3.92;92.95;98699.00;10246301;28;19921;-57
2022/12/04 11:00:34;;;;;;;30.25;19.73;;;;;;;3.93;93.40;98684.47;10246124;28;20058;-57
2022/12/04 11:05:39;;;;;;;23.70;16.20;;;;;;;4.05;94.14;98672.97;10246437;28;20133;-57
2022/12/04 11:10:42;;;;;;;50.50;35.25;;;;;;;4.10;93.70;98664.56;10246429;28;20062;-57
2022/12/04 11:15:43;;;;;;;29.48;19.58;;;;;;;4.20;93.90;98654.72;10244505;28;20085;-57
2022/12/04 11:21:04;;;;;;;28.80;20.90;;;;;;;4.41;93.93;98669.22;10246331;28;20149;-57
2022/12/04 11:26:03;;;;;;;27.20;16.27;;;;;;;4.46;92.95;98662.56;10245175;28;20117;-57
2022/12/04 11:31:04;;;;;;;35.50;23.65;;;;;;;4.61;93.30;98663.09;10246297;28;20484;-57
2022/12/04 11:36:19;;;;;;;35.05;21.33;;;;;;;4.55;92.69;98673.19;10245254;28;20678;-57
2022/12/04 11:41:27;;;;;;;46.60;29.80;;;;;;;4.44;92.72;98669.31;10245987;28;20592;-57
2022/12/04 11:46:29;;;;;;;70.68;45.05;;;;;;;4.40;92.88;98667.44;10245389;28;20512;-57
2022/12/04 11:52:01;;;;;;;30.70;19.40;;;;;;;4.42;92.76;98663.25;10245181;28;20129;-57
2022/12/04 11:57:19;;;;;;;41.15;26.52;;;;;;;4.34;92.78;98670.69;10245850;28;20109;-57
2022/12/04 12:02:45;;;;;;;42.05;27.45;;;;;;;4.44;93.36;98667.63;10242903;28;20078;-57
2022/12/04 12:07:53;;;;;;;34.13;25.35;;;;;;;4.58;93.32;98675.84;10244873;28;20644;-57
2022/12/04 12:13:23;;;;;;;28.67;17.73;;;;;;;4.65;93.07;98664.13;10244350;28;20348;-57
2022/12/04 12:18:59;;;;;;;31.07;18.70;;;;;;;4.59;92.90;98664.75;10244362;28;20129;-57
2022/12/04 12:23:58;;;;;;;43.08;30.20;;;;;;;4.63;93.34;98669.19;10244607;28;20113;-57
2022/12/04 12:29:09;;;;;;;31.38;19.42;;;;;;;4.63;93.17;98681.16;10243707;28;20455;-57
2022/12/04 12:34:18;;;;;;;23.50;15.13;;;;;;;4.50;92.67;98674.69;10244315;28;20061;-57
2022/12/04 12:39:29;;;;;;;24.42;13.38;;;;;;;4.54;93.23;98668.84;10243425;28;20130;-57
2022/12/04 12:44:37;;;;;;;26.23;16.58;;;;;;;4.54;92.79;98676.56;10242442;28;20339;-57
2022/12/04 12:49:53;;;;;;;20.67;13.75;;;;;;;4.07;93.69;98684.19;10243664;28;20081;-57
2022/12/04 12:55:02;;;;;;;23.92;14.75;;;;;;;3.79;94.82;98689.91;10243616;28;20070;-57
2022/12/04 13:00:06;;;;;;;92.95;51.80;;;;;;;3.55;96.31;98701.75;10242767;28;20129;-57
2022/12/04 13:05:11;;;;;;;23.45;16.33;;;;;;;3.52;96.57;98699.03;10242638;28;20141;-57
2022/12/04 13:10:23;;;;;;;26.70;19.05;;;;;;;3.25;97.94;98688.47;10243322;28;20105;-57
2022/12/04 13:15:27;;;;;;;25.35;15.68;;;;;;;3.12;98.62;98695.66;10242341;28;20074;-57
2022/12/04 13:20:34;;;;;;;25.08;17.80;;;;;;;3.10;98.53;98711.78;10242849;28;20580;-57
2022/12/04 13:25:58;;;;;;;21.45;14.15;;;;;;;3.12;98.42;98705.00;10249483;28;20068;-57
2022/12/04 13:31:19;;;;;;;25.25;17.27;;;;;;;2.98;99.28;98707.88;10247479;28;20121;-57
2022/12/04 13:36:48;;;;;;;19.77;12.45;;;;;;;2.85;100.00;98704.69;10250057;28;20125;-56
2022/12/04 13:41:57;;;;;;;32.15;20.08;;;;;;;2.90;99.83;98708.34;10248946;28;20129;-56
2022/12/04 13:46:59;;;;;;;28.23;16.70;;;;;;;2.81;99.90;98703.66;10249386;28;20073;-56
2022/12/04 13:52:02;;;;;;;25.48;15.63;;;;;;;2.74;100.00;98706.75;10249698;28;20133;-57
2022/12/04 13:57:13;;;;;;;27.50;18.15;;;;;;;2.76;100.00;98700.03;10249179;28;20476;-57
2022/12/04 14:02:31;;;;;;;26.40;15.80;;;;;;;2.61;100.00;98704.47;10248979;28;20074;-57
2022/12/04 14:07:38;;;;;;;30.73;20.70;;;;;;;2.65;100.00;98707.22;10246007;28;20142;-57
2022/12/04 14:12:41;;;;;;;33.55;20.33;;;;;;;2.75;100.00;98704.28;10249239;28;20129;-57
2022/12/04 14:17:40;;;;;;;38.40;24.40;;;;;;;2.66;100.00;98703.00;10248561;28;20116;-57
2022/12/04 14:22:42;;;;;;;35.28;21.58;;;;;;;2.64;100.00;98708.03;10247417;28;20053;-57
2022/12/04 14:27:41;;;;;;;25.13;14.48;;;;;;;2.51;100.00;98711.75;10246183;28;20049;-57
2022/12/04 14:32:42;;;;;;;28.95;17.35;;;;;;;2.54;100.00;98713.56;10248582;28;20042;-57
2022/12/04 14:38:01;;;;;;;27.30;17.80;;;;;;;2.48;100.00;98708.13;10247261;28;20122;-58
2022/12/04 14:43:00;;;;;;;26.70;15.55;;;;;;;2.47;100.00;98708.97;10247697;28;20069;-58
2022/12/04 14:48:02;;;;;;;29.42;18.33;;;;;;;2.42;100.00;98706.19;10247860;28;20054;-57
2022/12/04 14:53:19;;;;;;;31.42;18.85;;;;;;;2.43;100.00;98709.63;10246610;28;20568;-57
2022/12/04 14:58:29;;;;;;;32.72;20.33;;;;;;;2.31;100.00;98715.03;10246824;28;20110;-57
2022/12/04 15:03:34;;;;;;;;;;;;;;;2.42;100.00;98712.97;10247128;28;20124;-57
2022/12/04 15:08:33;;;;;;;29.30;20.08;;;;;;;2.51;100.00;98704.06;10247583;28;19952;-57
2022/12/04 15:13:36;;;;;;;31.65;22.10;;;;;;;2.47;100.00;98699.59;10246735;28;20831;-57
2022/12/04 15:18:35;;;;;;;29.95;20.05;;;;;;;2.42;100.00;98692.47;10246145;28;20486;-57
2022/12/04 15:23:40;;;;;;;;;;;;;;;2.49;100.00;98690.28;10246620;28;20080;-57
2022/12/04 15:28:57;;;;;;;39.40;24.17;;;;;;;2.67;100.00;98694.47;10245710;28;19960;-57
2022/12/04 15:34:00;;;;;;;37.08;23.10;;;;;;;2.67;100.00;98694.47;10245220;28;20344;-57
2022/12/04 15:39:01;;;;;;;24.42;13.95;;;;;;;2.49;100.00;98710.78;10245733;28;20121;-57
2022/12/04 15:44:01;;;;;;;28.55;17.35;;;;;;;2.35;100.00;98709.28;10244973;28;20523;-58
2022/12/04 15:49:17;;;;;;;28.88;17.02;;;;;;;2.36;100.00;98718.69;10244615;28;20138;-57
2022/12/04 15:54:22;;;;;;;30.38;19.15;;;;;;;2.45;100.00;98728.50;10245916;28;20133;-58
2022/12/04 15:59:21;;;;;;;44.00;25.98;;;;;;;2.52;100.00;98715.16;10244719;28;20469;-57
2022/12/04 16:04:22;;;;;;;33.70;20.65;;;;;;;2.43;100.00;98725.84;10244212;28;20088;-57
2022/12/04 16:09:26;;;;;;;35.35;21.83;;;;;;;2.50;100.00;98725.34;10191723;28;20082;-57
2022/12/04 16:14:25;;;;;;;34.38;22.00;;;;;;;2.51;100.00;98731.34;10243635;28;20081;-58
2022/12/04 16:19:35;;;;;;;36.47;19.65;;;;;;;2.55;100.00;98746.91;10242898;28;20073;-57
2022/12/04 16:24:34;;;;;;;38.58;21.63;;;;;;;2.64;100.00;98740.47;10244013;28;20885;-57
2022/12/04 16:29:33;;;;;;;40.08;23.23;;;;;;;2.70;100.00;98748.44;10243644;28;20485;-57
2022/12/04 16:34:32;;;;;;;47.92;27.17;;;;;;;2.76;100.00;98743.59;10243537;28;20045;-58
2022/12/04 16:39:31;;;;;;;46.72;27.05;;;;;;;2.82;100.00;98738.75;10243923;28;20034;-57
2022/12/04 16:44:30;;;;;;;48.00;29.15;;;;;;;2.90;100.00;98744.22;10243395;28;20044;-57
2022/12/04 16:49:29;;;;;;;72.18;39.53;;;;;;;2.93;100.00;98745.25;10242871;28;20095;-57
2022/12/04 16:54:28;;;;;;;36.28;21.17;;;;;;;2.99;100.00;98739.50;10243267;28;20137;-57
2022/12/04 16:59:27;;;;;;;58.70;30.65;;;;;;;2.80;100.00;98727.56;10241958;28;20034;-58
2022/12/04 17:04:26;;;;;;;53.60;32.97;;;;;;;2.86;100.00;98727.81;10243094;28;20082;-57
2022/12/04 17:09:25;;;;;;;62.65;34.97;;;;;;;2.95;100.00;98741.03;10242810;28;20515;-59
2022/12/04 17:14:24;;;;;;;113.15;63.03;;;;;;;2.97;100.00;98739.44;10243605;28;20531;-58
2022/12/04 17:19:23;;;;;;;55.97;31.67;;;;;;;2.96;100.00;98744.50;10242767;28;20416;-58
2022/12/04 17:24:22;;;;;;;61.25;35.65;;;;;;;2.95;100.00;98748.72;10242750;28;20475;-57
2022/12/04 17:29:21;;;;;;;56.25;29.98;;;;;;;2.95;100.00;98740.16;10242532;28;20038;-57
2022/12/04 17:34:20;;;;;;;57.53;35.25;;;;;;;3.03;100.00;98749.09;10242054;28;20038;-56
2022/12/04 17:39:19;;;;;;;58.22;34.60;;;;;;;2.97;100.00;98752.25;10242444;28;20500;-58
2022/12/04 17:44:18;;;;;;;73.57;39.72;;;;;;;2.98;100.00;98756.59;10241217;28;20026;-58
2022/12/04 17:49:17;;;;;;;57.35;31.75;;;;;;;2.91;100.00;98744.31;10241266;28;20596;-55
2022/12/04 17:54:16;;;;;;;46.92;23.92;;;;;;;2.93;100.00;98734.09;10242195;28;20515;-56
2022/12/04 17:59:15;;;;;;;48.50;27.40;;;;;;;2.98;100.00;98727.47;10242779;28;20030;-56
2022/12/04 18:04:14;;;;;;;52.17;27.60;;;;;;;2.96;100.00;98750.50;10240911;28;20133;-57
2022/12/04 18:09:15;;;;;;;54.45;29.42;;;;;;;2.86;100.00;98756.00;10245988;28;20065;-56
2022/12/04 18:14:20;;;;;;;47.30;24.73;;;;;;;2.92;100.00;98764.00;10249858;28;20078;-58
2022/12/04 18:19:23;;;;;;;46.95;27.63;;;;;;;3.03;100.00;98751.66;10248301;28;20197;-58
2022/12/04 18:24:23;;;;;;;52.60;30.15;;;;;;;3.01;100.00;98741.34;10245971;28;20065;-57
2022/12/04 18:29:25;;;;;;;40.30;22.70;;;;;;;3.08;100.00;98749.31;10249237;28;20570;-58
2022/12/04 18:34:24;;;;;;;45.80;27.27;;;;;;;2.98;100.00;98725.81;10247401;28;20523;-57
2022/12/04 18:39:25;;;;;;;53.03;27.50;;;;;;;2.99;100.00;98740.38;10248609;28;20120;-57
2022/12/04 18:44:24;;;;;;;43.70;22.25;;;;;;;2.80;100.00;98760.88;10248172;28;20138;-58
2022/12/04 18:49:23;;;;;;;39.83;20.70;;;;;;;2.64;100.00;98772.09;10247207;28;20924;-57
2022/12/04 18:54:23;;;;;;;35.50;21.65;;;;;;;2.47;100.00;98773.88;10247389;28;20073;-58
2022/12/04 18:59:25;;;;;;;32.28;17.27;;;;;;;2.35;100.00;98789.53;10248287;28;20074;-57
2022/12/04 19:04:24;;;;;;;38.30;19.63;;;;;;;2.48;100.00;98792.69;10246490;28;20507;-57
2022/12/04 19:09:26;;;;;;;45.28;21.75;;;;;;;2.67;100.00;98781.63;10244258;28;20153;-57
2022/12/04 19:14:25;;;;;;;45.03;22.65;;;;;;;2.81;100.00;98783.13;10247001;28;20066;-57
2022/12/04 19:19:24;;;;;;;50.17;24.63;;;;;;;2.84;100.00;98790.97;10245688;28;20469;-57
2022/12/04 19:24:23;;;;;;;38.83;19.40;;;;;;;2.74;100.00;98792.22;10246124;28;20641;-57
2022/12/04 19:29:22;;;;;;;39.20;23.73;;;;;;;2.82;100.00;98800.28;10245651;28;20027;-58
2022/12/04 19:34:21;;;;;;;36.33;19.23;;;;;;;2.79;100.00;98802.69;10245970;28;20065;-58
2022/12/04 19:39:20;;;;;;;51.88;26.95;;;;;;;2.82;100.00;98797.72;10245803;28;20129;-58
2022/12/04 19:44:22;;;;;;;44.70;22.90;;;;;;;2.90;100.00;98793.81;10245471;28;20058;-56
2022/12/04 19:49:21;;;;;;;38.85;21.70;;;;;;;3.03;100.00;98777.31;10243690;28;20480;-57
2022/12/04 19:54:21;;;;;;;46.25;25.00;;;;;;;3.15;100.00;98800.06;10246205;28;20511;-58
2022/12/04 19:59:20;;;;;;;38.85;20.67;;;;;;;3.20;100.00;98807.13;10244599;28;20129;-57
2022/12/04 20:04:19;;;;;;;279.35;126.45;;;;;;;3.27;100.00;98794.59;10244546;28;20056;-56
2022/12/04 20:09:20;;;;;;;50.72;26.15;;;;;;;3.30;100.00;98795.59;10244162;28;20484;-57
2022/12/04 20:14:19;;;;;;;96.32;40.00;;;;;;;3.38;100.00;98788.25;10244727;28;20508;-57
2022/12/04 20:19:19;;;;;;;227.85;87.10;;;;;;;3.41;100.00;98796.97;10244742;28;20129;-57
2022/12/04 20:24:18;;;;;;;158.13;54.78;;;;;;;3.47;100.00;98791.19;10244993;28;20132;-57
2022/12/04 20:29:17;;;;;;;105.63;35.90;;;;;;;3.51;100.00;98771.69;10243397;28;20065;-57
2022/12/04 20:34:17;;;;;;;88.35;33.33;;;;;;;3.51;100.00;98787.09;10242659;28;20068;-57
2022/12/04 20:39:18;;;;;;;390.23;124.97;;;;;;;3.52;100.00;98791.41;10243345;28;20160;-57
2022/12/04 20:44:18;;;;;;;56.47;27.40;;;;;;;3.44;100.00;98786.81;10243260;28;20079;-57
2022/12/04 20:49:19;;;;;;;44.55;18.42;;;;;;;3.28;100.00;98770.69;10244025;28;20089;-57
2022/12/04 20:54:19;;;;;;;37.65;15.52;;;;;;;3.17;100.00;98770.25;10243028;28;20515;-57
2022/12/04 20:59:20;;;;;;;36.35;15.95;;;;;;;3.06;100.00;98762.06;10243285;28;20129;-57
2022/12/04 21:04:19;;;;;;;87.32;47.15;;;;;;;3.03;100.00;98756.78;10242959;28;20073;-57
2022/12/04 21:09:20;;;;;;;;;;;;;;;3.06;100.00;98756.94;10242624;28;20149;-57
2022/12/04 21:19:38;;;;;;;50.20;21.60;;;;;;;3.06;100.00;98748.38;10243195;28;19948;-57
2022/12/04 21:24:38;;;;;;;47.28;19.80;;;;;;;2.97;100.00;98759.94;10242945;28;20034;-57
2022/12/04 21:29:37;;;;;;;48.47;18.27;;;;;;;2.63;100.00;98761.75;10241880;28;20070;-57
2022/12/04 21:34:36;;;;;;;42.50;19.58;;;;;;;2.44;100.00;98772.84;10243234;28;20481;-57
2022/12/04 21:39:36;;;;;;;44.22;18.15;;;;;;;2.37;100.00;98769.09;10242311;28;20544;-57
2022/12/04 21:44:34;;;;;;;;;;;;;;;2.41;100.00;98786.38;10249152;28;20077;-57
2022/12/04 21:49:33;;;;;;;51.22;19.60;;;;;;;2.50;100.00;98783.38;10250715;28;19914;-57
2022/12/04 21:54:32;;;;;;;48.63;17.67;;;;;;;2.62;100.00;98801.03;10250159;28;20038;-57
2022/12/04 21:59:31;;;;;;;47.13;17.98;;;;;;;2.69;100.00;98795.38;10248449;28;20038;-57
2022/12/04 22:04:30;;;;;;;52.60;16.42;;;;;;;2.60;100.00;98806.06;10249924;28;20046;-57
2022/12/04 22:09:29;;;;;;;44.40;16.17;;;;;;;2.57;100.00;98806.81;10249589;28;20034;-57
2022/12/04 22:14:28;;;;;;;47.80;17.73;;;;;;;2.55;100.00;98790.47;10249277;28;20042;-57
2022/12/04 22:19:27;;;;;;;40.50;15.63;;;;;;;2.58;100.00;98790.63;10249066;28;20140;-57
2022/12/04 22:24:28;;;;;;;47.92;16.58;;;;;;;2.68;100.00;98773.13;10249809;28;20149;-57
2022/12/04 22:29:27;;;;;;;47.45;16.33;;;;;;;2.74;100.00;98781.09;10248193;28;20073;-57
2022/12/04 22:34:26;;;;;;;45.78;17.02;;;;;;;2.87;100.00;98767.16;10248939;28;20125;-57
2022/12/04 22:39:25;;;;;;;46.85;15.77;;;;;;;2.98;100.00;98759.16;10247512;28;20141;-57
2022/12/04 22:44:24;;;;;;;50.83;17.73;;;;;;;2.95;100.00;98764.13;10248733;28;20042;-57
2022/12/04 22:49:23;;;;;;;43.55;16.52;;;;;;;2.94;100.00;98744.44;10247759;28;20054;-57
2022/12/04 22:54:22;;;;;;;45.30;18.50;;;;;;;2.94;100.00;98748.69;10247662;28;20141;-57
2022/12/04 22:59:21;;;;;;;49.25;18.92;;;;;;;3.02;100.00;98750.75;10247244;28;20141;-57
2022/12/04 23:04:20;;;;;;;44.70;17.58;;;;;;;3.13;100.00;98737.56;10248036;28;20065;-57
2022/12/04 23:09:19;;;;;;;41.08;18.25;;;;;;;3.23;100.00;98744.84;10247191;28;20065;-57
2022/12/04 23:14:18;;;;;;;36.22;16.83;;;;;;;3.25;100.00;98743.22;10246957;28;20064;-57
2022/12/04 23:19:18;;;;;;;34.72;14.10;;;;;;;3.29;100.00;98745.13;10246211;28;20153;-57
2022/12/04 23:24:17;;;;;;;37.25;15.32;;;;;;;3.34;100.00;98745.31;10246040;28;20062;-57
2022/12/04 23:29:16;;;;;;;38.92;14.80;;;;;;;3.38;100.00;98748.09;10245626;28;20034;-57